sensor_id;sensor_type;location;lat;lon;timestamp;pressure;altitude;pressure_sealevel;temperature;humidity
64841;BME280;51307;52.162;7.560;2022-09-09T00:09:40;100278.75;;;16.38;94.68
64841;BME280;51307;52.162;7.560;2022-09-09T00:14:59;100285.00;;;16.37;95.38
64841;BME280;51307;52.162;7.560;2022-09-09T00:23:19;100270.00;;;16.38;95.50
64841;BME280;51307;52.162;7.560;2022-09-09T00:26:23;100268.81;;;16.40;95.66
64841;BME280;51307;52.162;7.560;2022-09-09T00:29:15;100273.84;;;16.42;96.07
64841;BME280;51307;52.162;7.560;2022-09-09T00:31:45;100274.88;;;16.41;96.32
64841;BME280;51307;52.162;7.560;2022-09-09T00:34:15;100265.56;;;16.38;96.12
64841;BME280;51307;52.162;7.560;2022-09-09T00:36:42;100264.34;;;16.34;96.53
64841;BME280;51307;52.162;7.560;2022-09-09T00:39:42;100273.63;;;16.30;96.93
64841;BME280;51307;52.162;7.560;2022-09-09T00:42:20;100265.94;;;16.29;97.63
64841;BME280;51307;52.162;7.560;2022-09-09T00:47:53;100271.41;;;16.27;97.90
64841;BME280;51307;52.162;7.560;2022-09-09T00:50:35;100271.63;;;16.25;98.03
64841;BME280;51307;52.162;7.560;2022-09-09T05:24:13;100297.63;;;15.19;100.00
64841;BME280;51307;52.162;7.560;2022-09-09T05:26:39;100297.25;;;15.22;100.00
64841;BME280;51307;52.162;7.560;2022-09-09T05:29:05;100295.44;;;15.22;100.00
64841;BME280;51307;52.162;7.560;2022-09-09T05:31:31;100299.09;;;15.21;100.00
64841;BME280;51307;52.162;7.560;2022-09-09T05:33:58;100301.09;;;15.19;100.00
64841;BME280;51307;52.162;7.560;2022-09-09T05:36:24;100297.63;;;15.19;100.00
64841;BME280;51307;52.162;7.560;2022-09-09T05:38:50;100294.19;;;15.18;100.00
64841;BME280;51307;52.162;7.560;2022-09-09T05:41:16;100300.25;;;15.19;100.00
64841;BME280;51307;52.162;7.560;2022-09-09T05:43:44;100301.50;;;15.23;100.00
64841;BME280;51307;52.162;7.560;2022-09-09T05:46:12;100296.66;;;15.27;100.00
64841;BME280;51307;52.162;7.560;2022-09-09T05:48:40;100296.28;;;15.30;100.00
64841;BME280;51307;52.162;7.560;2022-09-09T05:51:09;100298.56;;;15.33;100.00
64841;BME280;51307;52.162;7.560;2022-09-09T05:53:35;100305.25;;;15.35;100.00
64841;BME280;51307;52.162;7.560;2022-09-09T05:56:10;100302.63;;;15.35;100.00
64841;BME280;51307;52.162;7.560;2022-09-09T05:58:37;100302.78;;;15.34;100.00
64841;BME280;51307;52.162;7.560;2022-09-09T06:01:10;100296.53;;;15.35;100.00
64841;BME280;51307;52.162;7.560;2022-09-09T06:03:38;100306.03;;;15.36;100.00
64841;BME280;51307;52.162;7.560;2022-09-09T06:06:06;100294.31;;;15.38;100.00
64841;BME280;51307;52.162;7.560;2022-09-09T06:08:34;100302.03;;;15.40;100.00
64841;BME280;51307;52.162;7.560;2022-09-09T06:11:05;100291.50;;;15.40;100.00
64841;BME280;51307;52.162;7.560;2022-09-09T06:13:31;100288.69;;;15.41;100.00
64841;BME280;51307;52.162;7.560;2022-09-09T06:15:58;100290.91;;;15.44;100.00
64841;BME280;51307;52.162;7.560;2022-09-09T06:18:25;100292.91;;;15.42;100.00
64841;BME280;51307;52.162;7.560;2022-09-09T06:20:58;100297.56;;;15.40;100.00
64841;BME280;51307;52.162;7.560;2022-09-09T06:23:25;100295.72;;;15.41;100.00
64841;BME280;51307;52.162;7.560;2022-09-09T06:25:51;100296.56;;;15.41;100.00
64841;BME280;51307;52.162;7.560;2022-09-09T06:28:17;100295.34;;;15.44;100.00
64841;BME280;51307;52.162;7.560;2022-09-09T06:30:43;100295.56;;;15.49;100.00
64841;BME280;51307;52.162;7.560;2022-09-09T06:33:10;100296.81;;;15.53;100.00
64841;BME280;51307;52.162;7.560;2022-09-09T06:35:35;100295.41;;;15.57;100.00
64841;BME280;51307;52.162;7.560;2022-09-09T06:38:01;100301.91;;;15.61;100.00
64841;BME280;51307;52.162;7.560;2022-09-09T06:40:26;100292.78;;;15.64;100.00
64841;BME280;51307;52.162;7.560;2022-09-09T06:42:52;100294.22;;;15.67;100.00
64841;BME280;51307;52.162;7.560;2022-09-09T06:45:18;100304.94;;;15.72;100.00
64841;BME280;51307;52.162;7.560;2022-09-09T06:47:44;100292.41;;;15.74;100.00
64841;BME280;51307;52.162;7.560;2022-09-09T06:50:10;100305.97;;;15.77;100.00
64841;BME280;51307;52.162;7.560;2022-09-09T06:52:36;100300.31;;;15.80;100.00
64841;BME280;51307;52.162;7.560;2022-09-09T06:55:03;100312.06;;;15.84;100.00
64841;BME280;51307;52.162;7.560;2022-09-09T06:57:29;100306.81;;;15.84;100.00
64841;BME280;51307;52.162;7.560;2022-09-09T06:59:54;100306.81;;;15.84;100.00
64841;BME280;51307;52.162;7.560;2022-09-09T07:02:20;100301.97;;;15.88;100.00
64841;BME280;51307;52.162;7.560;2022-09-09T07:04:46;100311.28;;;15.91;100.00
64841;BME280;51307;52.162;7.560;2022-09-09T07:07:12;100304.81;;;15.93;100.00
64841;BME280;51307;52.162;7.560;2022-09-09T07:09:40;100315.56;;;15.98;100.00
64841;BME280;51307;52.162;7.560;2022-09-09T07:12:06;100313.50;;;16.00;100.00
64841;BME280;51307;52.162;7.560;2022-09-09T07:14:32;100310.88;;;16.00;100.00
64841;BME280;51307;52.162;7.560;2022-09-09T07:16:59;100319.22;;;16.04;100.00
64841;BME280;51307;52.162;7.560;2022-09-09T07:19:25;100322.44;;;16.06;100.00
64841;BME280;51307;52.162;7.560;2022-09-09T07:21:51;100322.03;;;16.09;100.00
64841;BME280;51307;52.162;7.560;2022-09-09T07:24:16;100311.72;;;16.08;100.00
64841;BME280;51307;52.162;7.560;2022-09-09T07:26:42;100320.84;;;16.05;100.00
64841;BME280;51307;52.162;7.560;2022-09-09T07:29:09;100324.66;;;16.02;100.00
64841;BME280;51307;52.162;7.560;2022-09-09T07:31:38;100320.41;;;16.01;100.00
64841;BME280;51307;52.162;7.560;2022-09-09T07:34:04;100323.66;;;16.03;100.00
64841;BME280;51307;52.162;7.560;2022-09-09T07:36:32;100321.22;;;16.09;100.00
64841;BME280;51307;52.162;7.560;2022-09-09T07:39:00;100326.50;;;16.09;100.00
64841;BME280;51307;52.162;7.560;2022-09-09T07:41:33;100323.69;;;16.10;100.00
64841;BME280;51307;52.162;7.560;2022-09-09T07:43:59;100319.03;;;16.12;100.00
64841;BME280;51307;52.162;7.560;2022-09-09T07:46:26;100327.31;;;16.16;100.00
64841;BME280;51307;52.162;7.560;2022-09-09T07:48:56;100325.28;;;16.18;100.00
64841;BME280;51307;52.162;7.560;2022-09-09T07:51:33;100319.41;;;16.22;100.00
64841;BME280;51307;52.162;7.560;2022-09-09T07:54:05;100314.38;;;16.27;100.00
64841;BME280;51307;52.162;7.560;2022-09-09T07:56:31;100316.00;;;16.35;100.00
64841;BME280;51307;52.162;7.560;2022-09-09T07:58:58;100321.91;;;16.37;99.90
64841;BME280;51307;52.162;7.560;2022-09-09T08:01:27;100321.91;;;16.44;99.72
64841;BME280;51307;52.162;7.560;2022-09-09T08:04:15;100327.16;;;16.44;99.18
64841;BME280;51307;52.162;7.560;2022-09-09T08:06:44;100326.78;;;16.47;99.06
64841;BME280;51307;52.162;7.560;2022-09-09T08:09:11;100325.34;;;16.51;99.53
64841;BME280;51307;52.162;7.560;2022-09-09T08:11:38;100325.34;;;16.58;99.33
64841;BME280;51307;52.162;7.560;2022-09-09T08:14:05;100324.31;;;16.65;98.82
64841;BME280;51307;52.162;7.560;2022-09-09T08:16:35;100329.59;;;16.72;98.29
64841;BME280;51307;52.162;7.560;2022-09-09T08:19:03;100326.34;;;16.77;97.41
64841;BME280;51307;52.162;7.560;2022-09-09T08:21:31;100323.88;;;16.82;97.41
64841;BME280;51307;52.162;7.560;2022-09-09T08:23:59;100325.34;;;16.84;97.07
64841;BME280;51307;52.162;7.560;2022-09-09T08:26:30;100324.09;;;16.87;97.39
64841;BME280;51307;52.162;7.560;2022-09-09T08:28:58;100322.25;;;16.94;97.04
64841;BME280;51307;52.162;7.560;2022-09-09T08:33:55;100326.72;;;17.00;96.41
64841;BME280;51307;52.162;7.560;2022-09-09T08:36:26;100326.72;;;17.00;96.12
64841;BME280;51307;52.162;7.560;2022-09-09T08:38:55;100326.91;;;16.99;95.72
64841;BME280;51307;52.162;7.560;2022-09-09T08:52:21;100335.78;;;17.24;93.00
64841;BME280;51307;52.162;7.560;2022-09-09T08:54:47;100330.09;;;17.27;93.41
64841;BME280;51307;52.162;7.560;2022-09-09T08:57:23;100327.88;;;17.31;93.23
64841;BME280;51307;52.162;7.560;2022-09-09T08:59:52;100331.50;;;17.37;93.54
64841;BME280;51307;52.162;7.560;2022-09-09T09:02:42;100335.75;;;17.44;93.72
64841;BME280;51307;52.162;7.560;2022-09-09T09:05:33;100341.78;;;17.52;93.78
64841;BME280;51307;52.162;7.560;2022-09-09T09:10:44;100337.31;;;17.52;92.41
64841;BME280;51307;52.162;7.560;2022-09-09T09:13:17;100335.31;;;17.47;92.75
64841;BME280;51307;52.162;7.560;2022-09-09T09:15:50;100333.47;;;17.48;93.46
64841;BME280;51307;52.162;7.560;2022-09-09T09:18:18;100338.13;;;17.53;93.41
64841;BME280;51307;52.162;7.560;2022-09-09T09:23:42;100339.56;;;17.55;91.77
64841;BME280;51307;52.162;7.560;2022-09-09T09:26:10;100332.25;;;17.57;91.22
64841;BME280;51307;52.162;7.560;2022-09-09T09:28:39;100328.78;;;17.57;91.06
64841;BME280;51307;52.162;7.560;2022-09-09T09:31:09;100334.66;;;17.59;91.79
64841;BME280;51307;52.162;7.560;2022-09-09T09:33:50;100340.75;;;17.59;92.91
64841;BME280;51307;52.162;7.560;2022-09-09T09:36:19;100335.06;;;17.62;92.58
64841;BME280;51307;52.162;7.560;2022-09-09T09:39:00;100331.38;;;17.63;91.25
64841;BME280;51307;52.162;7.560;2022-09-09T09:41:33;100339.69;;;17.67;91.08
64841;BME280;51307;52.162;7.560;2022-09-09T09:43:59;100333.94;;;17.77;90.21
64841;BME280;51307;52.162;7.560;2022-09-09T09:46:26;100336.75;;;17.88;89.43
64841;BME280;51307;52.162;7.560;2022-09-09T09:49:01;100335.47;;;17.98;88.17
64841;BME280;51307;52.162;7.560;2022-09-09T09:51:29;100341.50;;;18.05;88.33
64841;BME280;51307;52.162;7.560;2022-09-09T09:54:28;100336.59;;;18.15;87.25
64841;BME280;51307;52.162;7.560;2022-09-09T09:56:52;100330.47;;;18.21;86.44
64841;BME280;51307;52.162;7.560;2022-09-09T10:01:52;100331.09;;;18.17;86.23
64841;BME280;51307;52.162;7.560;2022-09-09T10:04:21;100322.81;;;18.06;84.96
64841;BME280;51307;52.162;7.560;2022-09-09T10:06:49;100321.06;;;17.94;87.27
64841;BME280;51307;52.162;7.560;2022-09-09T10:09:29;100325.38;;;17.88;90.97
64841;BME280;51307;52.162;7.560;2022-09-09T10:15:01;100339.19;;;17.83;92.80
64841;BME280;51307;52.162;7.560;2022-09-09T10:22:34;100324.56;;;17.87;89.50
64841;BME280;51307;52.162;7.560;2022-09-09T10:30:51;100327.19;;;18.26;84.40
64841;BME280;51307;52.162;7.560;2022-09-09T10:33:44;100321.41;;;18.36;82.15
64841;BME280;51307;52.162;7.560;2022-09-09T10:36:23;100323.59;;;18.45;82.60
64841;BME280;51307;52.162;7.560;2022-09-09T10:38:59;100324.16;;;18.47;81.48
64841;BME280;51307;52.162;7.560;2022-09-09T10:41:44;100331.56;;;18.39;78.54
64841;BME280;51307;52.162;7.560;2022-09-09T10:44:29;100327.50;;;18.36;79.10
64841;BME280;51307;52.162;7.560;2022-09-09T10:55:36;100327.44;;;18.43;79.14
64841;BME280;51307;52.162;7.560;2022-09-09T10:58:05;100325.09;;;18.35;78.48
64841;BME280;51307;52.162;7.560;2022-09-09T11:00:41;100323.91;;;18.30;77.31
64841;BME280;51307;52.162;7.560;2022-09-09T11:03:28;100322.81;;;18.38;77.89
64841;BME280;51307;52.162;7.560;2022-09-09T11:06:17;100319.25;;;18.51;75.71
64841;BME280;51307;52.162;7.560;2022-09-09T11:08:45;100316.53;;;18.58;75.16
64841;BME280;51307;52.162;7.560;2022-09-09T11:11:20;100315.69;;;18.64;74.50
64841;BME280;51307;52.162;7.560;2022-09-09T11:19:28;100312.63;;;18.85;74.91
64841;BME280;51307;52.162;7.560;2022-09-09T11:22:08;100313.16;;;18.94;74.63
64841;BME280;51307;52.162;7.560;2022-09-09T11:24:41;100318.22;;;18.96;74.62
64841;BME280;51307;52.162;7.560;2022-09-09T11:35:41;100308.47;;;18.96;75.87
64841;BME280;51307;52.162;7.560;2022-09-09T11:40:44;100317.88;;;19.10;75.24
64841;BME280;51307;52.162;7.560;2022-09-09T11:43:11;100309.94;;;19.10;73.03
64841;BME280;51307;52.162;7.560;2022-09-09T11:45:41;100312.97;;;19.14;73.64
64841;BME280;51307;52.162;7.560;2022-09-09T11:48:28;100314.94;;;19.19;73.10
64841;BME280;51307;52.162;7.560;2022-09-09T11:51:04;100308.84;;;19.18;71.81
64841;BME280;51307;52.162;7.560;2022-09-09T11:53:31;100316.22;;;19.16;72.16
64841;BME280;51307;52.162;7.560;2022-09-09T11:56:06;100321.25;;;19.18;71.88
64841;BME280;51307;52.162;7.560;2022-09-09T11:58:53;100312.72;;;19.16;72.08
64841;BME280;51307;52.162;7.560;2022-09-09T12:06:50;100313.06;;;19.38;72.99
64841;BME280;51307;52.162;7.560;2022-09-09T12:19:40;100308.34;;;20.42;nan
64841;BME280;51307;52.162;7.560;2022-09-09T12:22:46;100313.97;;;20.46;nan
64841;BME280;51307;52.162;7.560;2022-09-09T12:28:15;100305.47;;;20.55;nan
64841;BME280;51307;52.162;7.560;2022-09-09T12:31:06;100292.31;;;20.49;nan
64841;BME280;51307;52.162;7.560;2022-09-09T12:33:37;100292.41;;;20.30;nan
64841;BME280;51307;52.162;7.560;2022-09-09T12:36:11;100299.66;;;20.23;nan
64841;BME280;51307;52.162;7.560;2022-09-09T12:38:40;100297.81;;;20.12;nan
64841;BME280;51307;52.162;7.560;2022-09-09T12:41:15;100303.81;;;20.07;nan
64841;BME280;51307;52.162;7.560;2022-09-09T12:43:44;100305.50;;;20.02;nan
64841;BME280;51307;52.162;7.560;2022-09-09T12:46:31;100308.25;;;19.95;nan
64841;BME280;51307;52.162;7.560;2022-09-09T12:48:58;100308.41;;;20.00;nan
64841;BME280;51307;52.162;7.560;2022-09-09T12:51:29;100303.09;;;20.00;nan
64841;BME280;51307;52.162;7.560;2022-09-09T12:53:56;100300.78;;;20.04;nan
64841;BME280;51307;52.162;7.560;2022-09-09T12:56:25;100301.84;;;20.14;nan
64841;BME280;51307;52.162;7.560;2022-09-09T12:58:53;100302.00;;;20.20;nan
64841;BME280;51307;52.162;7.560;2022-09-09T13:03:47;100294.84;;;20.20;nan
64841;BME280;51307;52.162;7.560;2022-09-09T13:06:28;100292.63;;;20.17;nan
64841;BME280;51307;52.162;7.560;2022-09-09T13:09:01;100294.47;;;20.05;nan
64841;BME280;51307;52.162;7.560;2022-09-09T13:11:38;100290.56;;;20.07;nan
64841;BME280;51307;52.162;7.560;2022-09-09T13:14:05;100299.09;;;20.09;nan
64841;BME280;51307;52.162;7.560;2022-09-09T13:16:34;100295.63;;;20.09;nan
64841;BME280;51307;52.162;7.560;2022-09-09T13:19:08;100284.78;;;20.10;nan
64841;BME280;51307;52.162;7.560;2022-09-09T13:21:37;100292.88;;;20.15;nan
64841;BME280;51307;52.162;7.560;2022-09-09T13:24:06;100276.72;;;20.17;nan
64841;BME280;51307;52.162;7.560;2022-09-09T13:26:33;100275.00;;;20.23;nan
64841;BME280;51307;52.162;7.560;2022-09-09T13:29:17;100271.56;;;20.22;nan
64841;BME280;51307;52.162;7.560;2022-09-09T13:31:43;100273.75;;;20.25;nan
64841;BME280;51307;52.162;7.560;2022-09-09T13:34:22;100273.41;;;20.33;nan
64841;BME280;51307;52.162;7.560;2022-09-09T13:36:59;100269.25;;;20.37;nan
64841;BME280;51307;52.162;7.560;2022-09-09T13:39:28;100263.59;;;20.46;nan
64841;BME280;51307;52.162;7.560;2022-09-09T13:41:54;100259.56;;;20.43;nan
64841;BME280;51307;52.162;7.560;2022-09-09T13:44:26;100264.88;;;20.43;nan
64841;BME280;51307;52.162;7.560;2022-09-09T13:47:03;100265.47;;;20.33;nan
64841;BME280;51307;52.162;7.560;2022-09-09T13:49:30;100275.69;;;20.18;nan
64841;BME280;51307;52.162;7.560;2022-09-09T13:52:25;100289.75;;;20.07;nan
64841;BME280;51307;52.162;7.560;2022-09-09T13:54:52;100292.88;;;19.85;nan
64841;BME280;51307;52.162;7.560;2022-09-09T13:57:24;100297.59;;;19.71;nan
64841;BME280;51307;52.162;7.560;2022-09-09T13:59:52;100293.06;;;19.60;nan
64841;BME280;51307;52.162;7.560;2022-09-09T14:02:18;100302.88;;;19.41;nan
64841;BME280;51307;52.162;7.560;2022-09-09T14:04:44;100305.22;;;19.31;nan
64841;BME280;51307;52.162;7.560;2022-09-09T14:07:15;100302.66;;;19.24;nan
64841;BME280;51307;52.162;7.560;2022-09-09T14:09:42;100304.13;;;19.20;nan
64841;BME280;51307;52.162;7.560;2022-09-09T14:12:14;100305.88;;;19.26;nan
64841;BME280;51307;52.162;7.560;2022-09-09T14:14:41;100307.72;;;19.26;nan
64841;BME280;51307;52.162;7.560;2022-09-09T14:17:08;100310.38;;;19.26;nan
64841;BME280;51307;52.162;7.560;2022-09-09T14:19:34;100312.00;;;19.27;nan
64841;BME280;51307;52.162;7.560;2022-09-09T14:21:59;100314.88;;;19.25;nan
64841;BME280;51307;52.162;7.560;2022-09-09T14:24:25;100318.59;;;19.18;nan
64841;BME280;51307;52.162;7.560;2022-09-09T14:26:51;100323.09;;;19.17;nan
64841;BME280;51307;52.162;7.560;2022-09-09T14:29:17;100324.22;;;19.09;nan
64841;BME280;51307;52.162;7.560;2022-09-09T14:31:42;100331.75;;;18.87;nan
64841;BME280;51307;52.162;7.560;2022-09-09T14:34:08;100349.41;;;18.68;nan
64841;BME280;51307;52.162;7.560;2022-09-09T14:36:35;100347.03;;;18.60;nan
64841;BME280;51307;52.162;7.560;2022-09-09T14:39:00;100344.72;;;18.45;nan
64841;BME280;51307;52.162;7.560;2022-09-09T14:41:26;100348.88;;;18.35;nan
64841;BME280;51307;52.162;7.560;2022-09-09T14:43:52;100351.97;;;18.25;nan
64841;BME280;51307;52.162;7.560;2022-09-09T14:46:19;100351.38;;;18.23;nan
64841;BME280;51307;52.162;7.560;2022-09-09T14:48:46;100350.00;;;18.14;nan
64841;BME280;51307;52.162;7.560;2022-09-09T14:51:20;100353.53;;;18.01;nan
64841;BME280;51307;52.162;7.560;2022-09-09T14:53:48;100349.06;;;18.01;nan
64841;BME280;51307;52.162;7.560;2022-09-09T14:56:18;100348.25;;;18.01;nan
64841;BME280;51307;52.162;7.560;2022-09-09T14:58:44;100341.97;;;18.02;nan
64841;BME280;51307;52.162;7.560;2022-09-09T15:01:15;100337.22;;;18.10;nan
64841;BME280;51307;52.162;7.560;2022-09-09T15:03:43;100342.28;;;18.12;nan
64841;BME280;51307;52.162;7.560;2022-09-09T15:06:14;100329.28;;;18.10;nan
64841;BME280;51307;52.162;7.560;2022-09-09T15:08:42;100339.56;;;18.25;nan
64841;BME280;51307;52.162;7.560;2022-09-09T15:11:10;100332.44;;;18.33;nan
64841;BME280;51307;52.162;7.560;2022-09-09T15:13:37;100337.22;;;18.42;nan
64841;BME280;51307;52.162;7.560;2022-09-09T15:16:05;100337.59;;;18.46;nan
64841;BME280;51307;52.162;7.560;2022-09-09T15:18:31;100329.03;;;18.50;nan
64841;BME280;51307;52.162;7.560;2022-09-09T15:20:59;100335.06;;;18.58;nan
64841;BME280;51307;52.162;7.560;2022-09-09T15:23:27;100323.63;;;18.64;nan
64841;BME280;51307;52.162;7.560;2022-09-09T15:25:54;100326.59;;;18.74;nan
64841;BME280;51307;52.162;7.560;2022-09-09T15:28:21;100320.34;;;18.87;nan
64841;BME280;51307;52.162;7.560;2022-09-09T15:30:48;100315.94;;;18.99;nan
64841;BME280;51307;52.162;7.560;2022-09-09T15:33:13;100313.44;;;19.04;nan
64841;BME280;51307;52.162;7.560;2022-09-09T15:35:39;100310.19;;;19.02;nan
64841;BME280;51307;52.162;7.560;2022-09-09T15:38:04;100304.28;;;19.07;nan
64841;BME280;51307;52.162;7.560;2022-09-09T15:40:31;100297.88;;;19.14;nan
64841;BME280;51307;52.162;7.560;2022-09-09T15:42:59;100292.97;;;19.18;nan
64841;BME280;51307;52.162;7.560;2022-09-09T15:45:25;100293.25;;;19.10;nan
64841;BME280;51307;52.162;7.560;2022-09-09T15:47:52;100291.03;;;19.07;nan
64841;BME280;51307;52.162;7.560;2022-09-09T15:50:17;100294.41;;;18.96;nan
64841;BME280;51307;52.162;7.560;2022-09-09T15:52:43;100284.25;;;18.92;nan
64841;BME280;51307;52.162;7.560;2022-09-09T15:55:09;100289.19;;;18.89;nan
64841;BME280;51307;52.162;7.560;2022-09-09T15:57:35;100286.38;;;18.84;nan
64841;BME280;51307;52.162;7.560;2022-09-09T16:00:03;100281.75;;;18.79;nan
64841;BME280;51307;52.162;7.560;2022-09-09T16:02:29;100284.03;;;18.76;nan
64841;BME280;51307;52.162;7.560;2022-09-09T16:04:56;100290.03;;;18.64;nan
64841;BME280;51307;52.162;7.560;2022-09-09T16:07:22;100285.25;;;18.55;nan
64841;BME280;51307;52.162;7.560;2022-09-09T16:09:48;100296.63;;;18.55;nan
64841;BME280;51307;52.162;7.560;2022-09-09T16:12:16;100287.91;;;18.55;nan
64841;BME280;51307;52.162;7.560;2022-09-09T16:14:42;100289.75;;;18.54;nan
64841;BME280;51307;52.162;7.560;2022-09-09T16:17:10;100297.09;;;18.52;nan
64841;BME280;51307;52.162;7.560;2022-09-09T16:19:36;100296.31;;;18.45;nan
64841;BME280;51307;52.162;7.560;2022-09-09T16:22:03;100297.63;;;18.36;nan
64841;BME280;51307;52.162;7.560;2022-09-09T16:24:30;100298.59;;;18.41;nan
64841;BME280;51307;52.162;7.560;2022-09-09T16:26:55;100302.44;;;18.45;nan
64841;BME280;51307;52.162;7.560;2022-09-09T16:29:22;100302.09;;;18.35;nan
64841;BME280;51307;52.162;7.560;2022-09-09T16:31:49;100302.38;;;18.27;nan
64841;BME280;51307;52.162;7.560;2022-09-09T16:34:16;100302.75;;;18.30;nan
64841;BME280;51307;52.162;7.560;2022-09-09T16:36:43;100306.41;;;18.29;nan
64841;BME280;51307;52.162;7.560;2022-09-09T16:39:14;100308.94;;;18.43;nan
64841;BME280;51307;52.162;7.560;2022-09-09T16:41:42;100317.00;;;18.73;nan
64841;BME280;51307;52.162;7.560;2022-09-09T16:44:11;100314.22;;;19.11;nan
64841;BME280;51307;52.162;7.560;2022-09-09T16:46:40;100331.03;;;19.35;nan
64841;BME280;51307;52.162;7.560;2022-09-09T16:49:09;100325.72;;;19.35;nan
64841;BME280;51307;52.162;7.560;2022-09-09T16:51:53;100340.09;;;19.28;nan
64841;BME280;51307;52.162;7.560;2022-09-09T16:54:19;100343.88;;;19.50;nan
64841;BME280;51307;52.162;7.560;2022-09-09T16:56:47;100335.63;;;19.59;nan
64841;BME280;51307;52.162;7.560;2022-09-09T16:59:15;100334.69;;;19.53;nan
64841;BME280;51307;52.162;7.560;2022-09-09T17:01:43;100329.84;;;19.13;nan
64841;BME280;51307;52.162;7.560;2022-09-09T17:04:20;100330.16;;;18.61;nan
64841;BME280;51307;52.162;7.560;2022-09-09T17:06:50;100337.88;;;18.38;nan
64841;BME280;51307;52.162;7.560;2022-09-09T17:09:18;100336.38;;;18.17;nan
64841;BME280;51307;52.162;7.560;2022-09-09T17:11:44;100331.97;;;18.04;nan
64841;BME280;51307;52.162;7.560;2022-09-09T17:14:14;100339.72;;;17.99;nan
64841;BME280;51307;52.162;7.560;2022-09-09T17:17:06;100341.44;;;17.86;89.49
64841;BME280;51307;52.162;7.560;2022-09-09T17:19:32;100336.00;;;17.75;90.21
64841;BME280;51307;52.162;7.560;2022-09-09T17:21:59;100343.78;;;17.63;91.49
64841;BME280;51307;52.162;7.560;2022-09-09T17:24:26;100345.38;;;17.70;91.78
64841;BME280;51307;52.162;7.560;2022-09-09T17:26:54;100343.38;;;17.66;92.27
64841;BME280;51307;52.162;7.560;2022-09-09T17:29:19;100338.69;;;17.61;92.54
64841;BME280;51307;52.162;7.560;2022-09-09T17:31:45;100340.34;;;17.62;92.72
64841;BME280;51307;52.162;7.560;2022-09-09T17:34:10;100339.53;;;17.62;93.22
64841;BME280;51307;52.162;7.560;2022-09-09T17:36:37;100332.44;;;17.56;93.37
64841;BME280;51307;52.162;7.560;2022-09-09T17:39:04;100340.75;;;17.59;93.55
64841;BME280;51307;52.162;7.560;2022-09-09T17:41:36;100335.28;;;17.54;94.04
64841;BME280;51307;52.162;7.560;2022-09-09T17:44:03;100339.97;;;17.52;94.30
64841;BME280;51307;52.162;7.560;2022-09-09T17:46:49;100340.75;;;17.53;94.78
64841;BME280;51307;52.162;7.560;2022-09-09T17:49:16;100343.41;;;17.53;95.28
64841;BME280;51307;52.162;7.560;2022-09-09T17:51:45;100345.47;;;17.51;95.72
64841;BME280;51307;52.162;7.560;2022-09-09T17:54:17;100346.28;;;17.51;95.97
64841;BME280;51307;52.162;7.560;2022-09-09T17:56:44;100339.34;;;17.57;95.86
64841;BME280;51307;52.162;7.560;2022-09-09T17:59:11;100347.69;;;17.54;96.08
64841;BME280;51307;52.162;7.560;2022-09-09T18:01:40;100348.69;;;17.53;96.68
64841;BME280;51307;52.162;7.560;2022-09-09T18:04:08;100353.78;;;17.47;97.28
64841;BME280;51307;52.162;7.560;2022-09-09T18:06:37;100360.47;;;17.50;97.29
64841;BME280;51307;52.162;7.560;2022-09-09T18:09:08;100361.91;;;17.46;97.58
64841;BME280;51307;52.162;7.560;2022-09-09T18:11:37;100362.94;;;17.45;98.00
64841;BME280;51307;52.162;7.560;2022-09-09T18:14:07;100361.53;;;17.42;98.38
64841;BME280;51307;52.162;7.560;2022-09-09T18:16:36;100366.38;;;17.45;98.65
64841;BME280;51307;52.162;7.560;2022-09-09T18:19:08;100365.19;;;17.41;98.69
64841;BME280;51307;52.162;7.560;2022-09-09T18:21:34;100371.06;;;17.43;99.01
64841;BME280;51307;52.162;7.560;2022-09-09T18:24:03;100368.66;;;17.42;99.13
64841;BME280;51307;52.162;7.560;2022-09-09T18:26:30;100369.81;;;17.46;99.20
64841;BME280;51307;52.162;7.560;2022-09-09T18:29:00;100370.06;;;17.38;98.99
64841;BME280;51307;52.162;7.560;2022-09-09T18:31:28;100374.13;;;17.40;98.89
64841;BME280;51307;52.162;7.560;2022-09-09T18:33:55;100374.16;;;17.34;98.76
64841;BME280;51307;52.162;7.560;2022-09-09T18:36:28;100372.94;;;17.29;98.62
64841;BME280;51307;52.162;7.560;2022-09-09T18:38:56;100379.44;;;17.20;98.32
64841;BME280;51307;52.162;7.560;2022-09-09T18:41:31;100390.19;;;17.19;98.90
64841;BME280;51307;52.162;7.560;2022-09-09T18:44:00;100392.63;;;17.20;98.43
64841;BME280;51307;52.162;7.560;2022-09-09T18:46:28;100382.88;;;17.14;97.95
64841;BME280;51307;52.162;7.560;2022-09-09T18:48:53;100391.41;;;17.16;97.83
64841;BME280;51307;52.162;7.560;2022-09-09T18:51:22;100383.31;;;17.11;96.98
64841;BME280;51307;52.162;7.560;2022-09-09T18:53:51;100389.59;;;17.03;96.88
64841;BME280;51307;52.162;7.560;2022-09-09T18:56:17;100387.16;;;17.02;96.88
64841;BME280;51307;52.162;7.560;2022-09-09T18:58:43;100392.44;;;17.02;97.13
64841;BME280;51307;52.162;7.560;2022-09-09T19:01:12;100390.63;;;16.96;97.00
64841;BME280;51307;52.162;7.560;2022-09-09T19:03:38;100389.00;;;16.95;97.33
64841;BME280;51307;52.162;7.560;2022-09-09T19:06:16;100385.75;;;16.86;97.80
64841;BME280;51307;52.162;7.560;2022-09-09T19:08:43;100387.59;;;16.85;97.72
64841;BME280;51307;52.162;7.560;2022-09-09T19:11:14;100393.47;;;16.87;97.81
64841;BME280;51307;52.162;7.560;2022-09-09T19:13:48;100394.50;;;16.86;97.81
64841;BME280;51307;52.162;7.560;2022-09-09T19:16:15;100393.06;;;16.84;97.75
64841;BME280;51307;52.162;7.560;2022-09-09T19:18:41;100396.13;;;16.81;97.64
64841;BME280;51307;52.162;7.560;2022-09-09T19:21:17;100390.22;;;16.79;97.60
64841;BME280;51307;52.162;7.560;2022-09-09T19:23:45;100399.75;;;16.80;97.57